Time;durP1;ratioP1;P1;durP2;ratioP2;P2;SDS_P1;SDS_P2;PMS_P1;PMS_P2;Temp;Humidity;BMP_temperature;BMP_pressure;BME280_temperature;BME280_humidity;BME280_pressure;Samples;Min_cycle;Max_cycle;Signal;HPM_P1;HPM_P2
2024/03/17 00:01:06;;;;;;;10.48;0.98;;;;;;;0.94;55.77;102352.06;5031728;28;20043;-76
2024/03/17 00:03:37;;;;;;;8.93;0.93;;;;;;;1.00;56.09;102348.78;5029586;28;20040;-74
2024/03/17 00:06:02;;;;;;;6.05;1.33;;;;;;;1.10;56.04;102356.78;5033114;28;20082;-75
2024/03/17 00:08:32;;;;;;;5.13;0.68;;;;;;;1.13;55.70;102357.66;5029886;28;20037;-75
2024/03/17 00:10:58;;;;;;;6.82;1.65;;;;;;;1.00;56.00;102352.22;5030950;28;20745;-76
2024/03/17 00:13:26;;;;;;;7.30;1.77;;;;;;;1.01;55.63;102353.09;5017064;28;20102;-74
2024/03/17 00:15:52;;;;;;;8.18;1.48;;;;;;;0.89;55.91;102362.28;5033536;28;20040;-75
2024/03/17 00:18:20;;;;;;;5.07;1.05;;;;;;;0.87;55.99;102351.06;5013038;28;20041;-75
2024/03/17 00:20:45;;;;;;;4.07;0.88;;;;;;;0.90;55.70;102345.13;5029385;28;20101;-77
2024/03/17 00:23:11;;;;;;;5.75;1.42;;;;;;;0.81;55.58;102347.47;5026999;28;20136;-74
2024/03/17 00:25:38;;;;;;;6.95;1.50;;;;;;;0.79;55.65;102354.28;5027862;28;20050;-73
2024/03/17 00:28:04;;;;;;;7.80;1.98;;;;;;;0.77;55.95;102348.22;5024631;28;20037;-70
2024/03/17 00:30:31;;;;;;;10.60;1.63;;;;;;;0.75;55.95;102352.47;5028805;28;20044;-71
2024/03/17 00:32:58;;;;;;;10.13;1.73;;;;;;;0.62;55.97;102346.16;5010910;28;20079;-72
2024/03/17 00:35:28;;;;;;;7.88;1.40;;;;;;;0.57;56.06;102355.44;5023270;28;20028;-71
2024/03/17 00:37:56;;;;;;;9.55;2.40;;;;;;;0.51;55.97;102356.19;5032926;28;20078;-73
2024/03/17 00:40:22;;;;;;;5.07;1.05;;;;;;;0.53;55.98;102349.38;5027180;28;20032;-72
2024/03/17 00:42:50;;;;;;;15.10;1.17;;;;;;;0.51;55.86;102355.31;5023162;28;20749;-72
2024/03/17 00:45:15;;;;;;;10.77;1.02;;;;;;;0.54;56.14;102363.09;5042783;28;20271;-74
2024/03/17 00:47:46;;;;;;;6.22;1.58;;;;;;;0.64;56.11;102360.81;5024414;28;20562;-73
2024/03/17 00:50:14;;;;;;;2.80;0.47;;;;;;;0.70;56.04;102362.63;5035581;28;20215;-72
2024/03/17 00:52:42;;;;;;;3.92;1.20;;;;;;;0.64;56.42;102367.66;5024504;28;20047;-71
2024/03/17 00:55:10;;;;;;;6.90;1.25;;;;;;;0.54;56.40;102366.53;5024664;28;20036;-74
2024/03/17 00:57:45;;;;;;;10.10;1.25;;;;;;;0.51;56.42;102365.59;5042621;28;20053;-72
2024/03/17 01:00:15;;;;;;;5.28;0.80;;;;;;;0.45;56.21;102361.16;5027984;28;20090;-71
2024/03/17 01:02:40;;;;;;;3.95;0.93;;;;;;;0.36;56.73;102360.91;5031894;28;20048;-71
2024/03/17 01:05:06;;;;;;;7.47;1.33;;;;;;;0.31;56.97;102368.50;5034242;28;20510;-72
2024/03/17 01:07:35;;;;;;;19.90;2.15;;;;;;;0.27;57.00;102362.41;5020312;28;20114;-72
2024/03/17 01:10:01;;;;;;;8.07;1.15;;;;;;;0.30;57.20;102371.03;5027582;28;20029;-71
2024/03/17 01:12:27;;;;;;;11.63;1.55;;;;;;;0.25;57.39;102368.34;5021936;27;20057;-74
2024/03/17 01:14:57;;;;;;;2.33;0.60;;;;;;;0.22;57.73;102364.00;5027060;28;20674;-68
2024/03/17 01:17:23;;;;;;;12.70;1.40;;;;;;;0.19;57.84;102358.78;5024904;28;21140;-76
2024/03/17 01:19:51;;;;;;;4.63;0.68;;;;;;;0.20;57.69;102350.22;5013993;28;20028;-74
2024/03/17 01:22:17;;;;;;;8.07;1.33;;;;;;;0.22;58.03;102353.72;5028303;28;20049;-71
2024/03/17 01:24:46;;;;;;;5.80;0.73;;;;;;;0.30;57.73;102356.50;5026770;28;20031;-71
2024/03/17 01:27:14;;;;;;;2.90;0.80;;;;;;;0.34;57.54;102353.16;4994036;28;20368;-73
2024/03/17 01:29:40;;;;;;;7.68;1.35;;;;;;;0.38;57.51;102347.25;5031451;28;20035;-73
2024/03/17 01:32:05;;;;;;;3.55;1.17;;;;;;;0.36;57.30;102350.63;5026653;28;20025;-72
2024/03/17 01:34:34;;;;;;;17.55;2.38;;;;;;;0.30;57.39;102346.22;5029324;28;20841;-72
2024/03/17 01:37:02;;;;;;;9.43;1.42;;;;;;;0.42;57.57;102351.66;5019966;28;20045;-71
2024/03/17 01:39:29;;;;;;;6.20;0.98;;;;;;;0.47;57.21;102351.78;5054469;28;20043;-73
2024/03/17 01:41:57;;;;;;;3.55;0.85;;;;;;;0.51;57.01;102351.03;5030091;28;20025;-73
2024/03/17 01:44:26;;;;;;;9.10;0.90;;;;;;;0.53;57.39;102357.09;5023539;28;21674;-73
2024/03/17 01:46:55;;;;;;;12.88;1.80;;;;;;;0.60;57.58;102348.69;5030825;28;20032;-72
2024/03/17 01:49:21;;;;;;;6.15;1.33;;;;;;;0.65;57.36;102348.81;5025170;28;20048;-74
2024/03/17 01:51:48;;;;;;;3.65;0.80;;;;;;;0.73;57.43;102341.28;5029523;28;20031;-72
2024/03/17 01:54:15;;;;;;;4.95;0.70;;;;;;;0.85;56.96;102347.56;5008495;28;20040;-74
2024/03/17 01:56:43;;;;;;;7.55;1.00;;;;;;;0.86;57.40;102339.03;5027688;28;20028;-75
2024/03/17 01:59:12;;;;;;;4.65;1.70;;;;;;;0.94;57.04;102346.94;5045771;28;20048;-73
2024/03/17 02:01:37;;;;;;;4.05;1.33;;;;;;;0.99;57.21;102350.50;5028097;28;20029;-75
2024/03/17 02:04:04;;;;;;;20.88;1.67;;;;;;;0.99;57.07;102350.50;5029989;28;20028;-68
2024/03/17 02:06:32;;;;;;;11.80;1.63;;;;;;;1.18;57.59;102340.63;5009701;28;20708;-69
2024/03/17 02:09:01;;;;;;;8.43;1.33;;;;;;;1.37;57.21;102347.91;5030537;28;20045;-69
2024/03/17 02:11:33;;;;;;;7.70;1.48;;;;;;;1.44;57.05;102336.94;5023861;28;20153;-68
2024/03/17 02:14:01;;;;;;;5.35;1.25;;;;;;;1.52;57.23;102335.38;5026855;28;20052;-69
2024/03/17 02:16:31;;;;;;;6.50;1.27;;;;;;;1.57;56.99;102334.63;5024012;28;20044;-68
2024/03/17 02:19:00;;;;;;;10.27;1.58;;;;;;;1.69;56.74;102333.16;5026613;28;20053;-71
2024/03/17 02:21:27;;;;;;;3.25;1.17;;;;;;;1.70;56.52;102331.44;5023922;28;20036;-68
2024/03/17 02:23:56;;;;;;;2.97;1.05;;;;;;;1.59;56.01;102322.63;5017454;28;20069;-70
2024/03/17 02:26:25;;;;;;;8.00;1.65;;;;;;;1.47;56.36;102329.28;5024829;28;20049;-70
2024/03/17 02:28:51;;;;;;;4.25;0.88;;;;;;;1.32;57.03;102328.91;5034661;28;20043;-70
2024/03/17 02:31:17;;;;;;;9.05;1.48;;;;;;;1.47;56.99;102328.41;5033140;28;20088;-70
2024/03/17 02:33:46;;;;;;;7.28;1.33;;;;;;;1.49;56.89;102335.34;5023569;28;20655;-69
2024/03/17 02:36:19;;;;;;;8.90;2.08;;;;;;;1.36;56.60;102330.72;5018425;28;20028;-70
2024/03/17 02:41:29;;;;;;;11.60;1.25;;;;;;;1.10;56.87;102324.97;5028499;28;20338;-70
2024/03/17 02:43:55;;;;;;;8.93;0.80;;;;;;;0.99;57.03;102319.59;5027299;28;20035;-72
2024/03/17 02:46:20;;;;;;;8.50;1.00;;;;;;;0.94;57.04;102316.03;5029044;28;20079;-71
2024/03/17 02:48:58;;;;;;;12.65;1.48;;;;;;;0.82;57.27;102320.91;5030988;28;20111;-72
2024/03/17 02:51:26;;;;;;;13.27;2.35;;;;;;;0.81;57.08;102319.16;5027970;28;20029;-71
2024/03/17 02:53:54;;;;;;;3.13;1.38;;;;;;;0.78;56.89;102309.66;5029569;28;20050;-70
2024/03/17 02:56:22;;;;;;;5.72;0.95;;;;;;;0.68;57.23;102324.03;5031142;28;20032;-71
2024/03/17 02:58:48;;;;;;;4.63;1.52;;;;;;;0.58;57.15;102324.63;5013869;28;20037;-71
2024/03/17 03:01:15;;;;;;;13.57;1.13;;;;;;;0.48;57.17;102322.66;5028225;28;20101;-71
2024/03/17 03:03:40;;;;;;;5.65;1.65;;;;;;;0.45;57.25;102323.44;5031887;28;20037;-71
2024/03/17 03:06:13;;;;;;;5.18;1.23;;;;;;;0.44;57.17;102326.84;5032610;28;20817;-71
2024/03/17 03:08:41;;;;;;;2.47;1.02;;;;;;;0.44;57.30;102323.41;5029537;28;20163;-71
2024/03/17 03:11:11;;;;;;;7.65;1.70;;;;;;;0.39;56.92;102324.97;5031487;28;20040;-70
2024/03/17 03:13:44;;;;;;;7.80;1.15;;;;;;;0.26;57.79;102332.41;5037373;28;20037;-70
2024/03/17 03:16:15;;;;;;;6.15;1.33;;;;;;;0.28;57.81;102327.28;5026030;28;20036;-71
2024/03/17 03:18:43;;;;;;;7.15;1.67;;;;;;;0.28;57.45;102332.44;5027715;28;20045;-70
2024/03/17 03:21:08;;;;;;;9.82;1.10;;;;;;;0.38;57.80;102323.25;5028625;28;20036;-70
2024/03/17 03:23:34;;;;;;;9.80;2.08;;;;;;;0.28;57.38;102338.44;5003848;28;20052;-70
2024/03/17 03:26:03;;;;;;;5.63;1.50;;;;;;;0.21;57.45;102328.84;5029813;28;20033;-70
2024/03/17 03:28:31;;;;;;;5.80;1.42;;;;;;;0.31;57.70;102336.78;5029930;28;20197;-70
2024/03/17 03:30:57;;;;;;;4.88;1.73;;;;;;;0.30;57.12;102335.03;5040325;28;20109;-70
2024/03/17 03:33:26;;;;;;;6.18;1.52;;;;;;;0.21;57.38;102341.69;5028775;28;20510;-70
2024/03/17 03:35:56;;;;;;;8.03;1.67;;;;;;;0.37;57.49;102344.66;5029677;28;20101;-75
2024/03/17 03:38:23;;;;;;;3.90;1.17;;;;;;;0.34;57.20;102342.00;5027903;28;20037;-77
2024/03/17 03:40:48;;;;;;;8.82;1.45;;;;;;;0.37;57.34;102336.97;5022619;28;20094;-75
2024/03/17 03:43:17;;;;;;;9.25;1.33;;;;;;;0.35;57.26;102343.75;5024408;28;20044;-73
2024/03/17 03:45:43;;;;;;;6.55;1.35;;;;;;;0.26;57.64;102345.25;5030667;28;20032;-73
2024/03/17 03:48:09;;;;;;;5.57;1.83;;;;;;;0.22;57.72;102338.28;5022258;28;20410;-72
2024/03/17 03:50:35;;;;;;;9.27;1.55;;;;;;;0.50;57.51;102333.84;5024938;28;20036;-73
2024/03/17 03:53:05;;;;;;;9.00;2.35;;;;;;;0.43;57.15;102330.22;5007657;28;20135;-73
2024/03/17 03:55:31;;;;;;;7.18;1.90;;;;;;;0.46;57.09;102332.03;5025071;28;20048;-76
2024/03/17 03:57:56;;;;;;;3.35;1.40;;;;;;;0.45;57.05;102333.72;5012097;28;20258;-75
2024/03/17 04:00:23;;;;;;;7.22;1.27;;;;;;;0.44;56.82;102334.56;5029538;28;20053;-67
2024/03/17 04:02:50;;;;;;;7.22;1.63;;;;;;;0.52;56.86;102327.03;5025849;28;20849;-70
2024/03/17 04:05:16;;;;;;;6.90;2.00;;;;;;;0.43;56.75;102324.22;5024705;28;20036;-71
2024/03/17 04:07:42;;;;;;;6.05;1.58;;;;;;;0.49;56.73;102329.53;5028258;28;20047;-70
2024/03/17 04:10:09;;;;;;;5.90;1.55;;;;;;;0.49;56.56;102321.81;5030016;28;20410;-70
2024/03/17 04:12:37;;;;;;;5.63;1.52;;;;;;;0.54;56.67;102321.94;5021974;28;23278;-68
2024/03/17 04:15:06;;;;;;;5.40;1.60;;;;;;;0.53;56.52;102328.78;5036140;28;20042;-70
2024/03/17 04:17:32;;;;;;;4.65;1.48;;;;;;;0.54;56.82;102324.50;5023351;28;20045;-70
2024/03/17 04:19:58;;;;;;;3.45;1.23;;;;;;;0.41;56.69;102323.31;5030491;28;20029;-69
2024/03/17 04:22:27;;;;;;;5.75;2.05;;;;;;;0.42;56.72;102319.94;5021793;28;20055;-68
2024/03/17 04:24:57;;;;;;;10.82;2.22;;;;;;;0.51;57.09;102330.44;5054820;28;20025;-68
2024/03/17 04:27:26;;;;;;;8.15;1.58;;;;;;;0.26;57.18;102334.09;5021994;28;20040;-70
2024/03/17 04:29:55;;;;;;;5.20;1.00;;;;;;;0.57;56.86;102327.16;5021740;28;20036;-71
2024/03/17 04:32:21;;;;;;;7.25;1.30;;;;;;;0.49;56.60;102319.25;5006649;28;20041;-70
2024/03/17 04:34:47;;;;;;;8.35;1.75;;;;;;;0.41;56.67;102321.63;5032736;28;20044;-70
2024/03/17 04:37:13;;;;;;;8.77;1.38;;;;;;;0.35;56.77;102324.03;5030661;28;20102;-72
2024/03/17 04:39:45;;;;;;;5.90;2.28;;;;;;;0.31;56.93;102326.50;5011397;28;20035;-69
2024/03/17 04:42:12;;;;;;;6.28;1.48;;;;;;;0.27;57.50;102331.53;5028813;28;20021;-69
2024/03/17 04:44:37;;;;;;;4.65;1.83;;;;;;;0.34;56.98;102327.44;5023825;28;20696;-72
2024/03/17 04:47:06;;;;;;;7.78;1.77;;;;;;;0.38;56.79;102331.81;5027999;28;20323;-74
2024/03/17 04:49:39;;;;;;;5.88;1.08;;;;;;;0.34;56.70;102339.44;5022741;28;20542;-73
2024/03/17 04:52:10;;;;;;;5.78;1.10;;;;;;;0.23;57.10;102339.13;5018979;28;20028;-75
2024/03/17 04:54:36;;;;;;;2.63;1.45;;;;;;;0.15;57.10;102341.53;5037078;28;20501;-74
2024/03/17 04:57:04;;;;;;;5.00;1.98;;;;;;;0.22;57.50;102346.00;5029968;28;20021;-74
2024/03/17 04:59:36;;;;;;;4.60;1.50;;;;;;;0.36;57.30;102335.19;5023664;28;20480;-74
2024/03/17 05:02:02;;;;;;;;;;;;;;;0.36;56.88;102335.19;5031493;28;20055;-75
2024/03/17 05:04:30;;;;;;;4.05;1.95;;;;;;;0.26;57.00;102344.38;5021439;28;19923;-74
2024/03/17 05:06:56;;;;;;;9.65;1.77;;;;;;;0.31;57.17;102335.09;5032255;28;20032;-69
2024/03/17 05:09:22;;;;;;;4.95;1.92;;;;;;;0.26;57.12;102334.97;5023029;28;20502;-69
2024/03/17 05:11:51;;;;;;;2.95;1.98;;;;;;;0.33;56.92;102340.28;5031076;28;20025;-70
2024/03/17 05:14:19;;;;;;;7.68;1.73;;;;;;;0.21;56.79;102341.69;5028953;28;20126;-68
2024/03/17 05:16:47;;;;;;;7.72;1.80;;;;;;;0.22;57.27;102343.41;5028397;28;20041;-69
2024/03/17 05:19:12;;;;;;;10.95;2.00;;;;;;;0.27;57.16;102340.97;5027876;28;20040;-69
2024/03/17 05:21:53;;;;;;;5.70;1.23;;;;;;;0.27;56.73;102346.97;5021856;28;20036;-69
2024/03/17 05:24:22;;;;;;;10.48;1.17;;;;;;;0.15;56.83;102351.81;5020925;28;20033;-69
2024/03/17 05:26:47;;;;;;;8.85;2.08;;;;;;;0.21;57.15;102353.66;5030000;28;20513;-69
2024/03/17 05:29:13;;;;;;;5.53;1.20;;;;;;;0.14;57.20;102346.63;5027589;28;20521;-69
2024/03/17 05:31:43;;;;;;;7.97;1.45;;;;;;;0.13;57.33;102343.19;5022129;28;20637;-69
2024/03/17 05:34:10;;;;;;;2.55;1.77;;;;;;;0.13;57.47;102342.31;5032518;28;20036;-69
2024/03/17 05:36:37;;;;;;;9.63;2.78;;;;;;;0.14;57.36;102342.34;5027298;28;20498;-72
2024/03/17 05:39:20;;;;;;;6.00;0.90;;;;;;;0.19;57.78;102343.34;5030707;28;20763;-71
2024/03/17 05:41:48;;;;;;;4.95;1.63;;;;;;;0.24;57.75;102341.75;5025992;28;20036;-74
2024/03/17 05:44:15;;;;;;;7.60;1.10;;;;;;;0.20;57.46;102342.50;5025889;28;20055;-74
2024/03/17 05:46:48;;;;;;;12.55;1.17;;;;;;;0.22;57.96;102346.00;5023383;28;20029;-73
2024/03/17 05:49:14;;;;;;;5.35;1.50;;;;;;;0.34;58.07;102336.84;5034793;28;20043;-73
2024/03/17 05:51:40;;;;;;;12.88;2.08;;;;;;;0.46;58.06;102340.63;5025392;28;20352;-73
2024/03/17 05:54:08;;;;;;;10.23;2.03;;;;;;;0.57;58.27;102340.00;5029378;28;20094;-73
2024/03/17 05:56:34;;;;;;;6.93;2.45;;;;;;;0.60;58.21;102335.81;5005413;28;20055;-73
2024/03/17 05:59:00;;;;;;;13.80;2.58;;;;;;;0.72;58.45;102336.97;5021925;28;20094;-74
2024/03/17 06:01:28;;;;;;;7.00;2.17;;;;;;;0.85;58.59;102336.41;5023176;28;20049;-75
2024/03/17 06:03:53;;;;;;;9.85;2.08;;;;;;;1.17;58.67;102333.72;5035328;28;20086;-74
2024/03/17 06:06:19;;;;;;;9.20;1.75;;;;;;;1.24;57.77;102349.34;5031733;28;20043;-73
2024/03/17 06:08:46;;;;;;;9.10;2.55;;;;;;;1.52;57.54;102348.28;5031044;28;20071;-73
2024/03/17 06:11:14;;;;;;;5.40;2.25;;;;;;;1.77;57.12;102347.91;5032985;28;20040;-73
2024/03/17 06:13:42;;;;;;;16.38;2.05;;;;;;;1.88;56.68;102351.56;5040306;28;20241;-72
2024/03/17 06:16:16;;;;;;;14.80;2.20;;;;;;;1.99;56.07;102351.78;5032288;28;20032;-75
2024/03/17 06:18:42;;;;;;;8.45;1.58;;;;;;;2.14;56.46;102350.38;5032437;28;20479;-69
2024/03/17 06:21:09;;;;;;;4.43;1.38;;;;;;;2.18;56.20;102348.72;5032620;28;20082;-68
2024/03/17 06:23:40;;;;;;;3.03;0.80;;;;;;;2.42;56.01;102355.16;5025377;28;20033;-72
2024/03/17 06:26:05;;;;;;;5.43;2.07;;;;;;;2.68;56.53;102359.06;5023289;28;20436;-71
2024/03/17 06:28:34;;;;;;;7.35;1.95;;;;;;;3.53;55.68;102350.03;5026531;28;20626;-69
2024/03/17 06:30:59;;;;;;;4.28;1.17;;;;;;;4.58;53.42;102346.84;5034833;28;20028;-69
2024/03/17 06:33:31;;;;;;;12.18;1.20;;;;;;;5.43;49.88;102344.00;5023715;28;20048;-70
2024/03/17 06:35:57;;;;;;;6.53;1.42;;;;;;;6.68;47.12;102340.00;5033943;28;20128;-71
2024/03/17 06:38:25;;;;;;;3.78;1.00;;;;;;;7.75;46.80;102340.66;5024118;28;20034;-71
2024/03/17 06:40:53;;;;;;;6.57;1.45;;;;;;;8.53;40.69;102329.72;5032046;28;20127;-70
2024/03/17 06:43:22;;;;;;;5.88;0.93;;;;;;;8.80;40.07;102339.97;5029050;28;20075;-71
2024/03/17 06:45:57;;;;;;;10.40;1.35;;;;;;;7.54;41.15;102336.38;5029306;28;20037;-71
2024/03/17 06:48:28;;;;;;;6.43;1.10;;;;;;;5.99;44.40;102354.59;5027231;28;20044;-69
2024/03/17 06:50:54;;;;;;;12.88;1.73;;;;;;;5.11;46.61;102340.38;5040591;28;20025;-71
2024/03/17 06:53:26;;;;;;;9.75;1.67;;;;;;;4.70;47.80;102351.25;5027921;28;20131;-68
2024/03/17 06:55:58;;;;;;;5.22;1.15;;;;;;;4.33;49.26;102349.22;5032426;28;20674;-71
2024/03/17 06:58:26;;;;;;;6.20;1.95;;;;;;;4.02;49.29;102348.88;5017507;28;20040;-68
2024/03/17 07:01:19;;;;;;;14.15;2.08;;;;;;;3.88;49.52;102355.63;5023213;28;20526;-70
2024/03/17 07:03:45;;;;;;;10.45;2.13;;;;;;;3.72;50.68;102348.56;5042118;27;20035;-68
2024/03/17 07:06:15;;;;;;;12.10;2.72;;;;;;;3.69;51.80;102353.66;5035552;28;20073;-71
2024/03/17 07:08:42;;;;;;;10.48;2.67;;;;;;;3.70;51.97;102345.94;5014741;28;20648;-68
2024/03/17 07:11:07;;;;;;;4.85;1.38;;;;;;;3.83;51.36;102341.78;5034884;28;20074;-71
2024/03/17 07:13:36;;;;;;;6.00;2.13;;;;;;;3.64;51.51;102355.34;5022251;28;20155;-71
2024/03/17 07:16:06;;;;;;;9.27;2.03;;;;;;;3.99;51.13;102351.44;5035315;28;20040;-71
2024/03/17 07:18:34;;;;;;;9.30;1.65;;;;;;;4.02;50.87;102356.66;5020295;28;20043;-70
2024/03/17 07:21:03;;;;;;;13.60;1.85;;;;;;;4.17;51.15;102360.28;5034484;28;20037;-71
2024/03/17 07:23:33;;;;;;;6.95;1.45;;;;;;;4.37;50.80;102360.47;5022042;28;20507;-72
2024/03/17 07:26:04;;;;;;;3.63;1.30;;;;;;;4.49;51.85;102365.75;5035836;28;20375;-70
2024/03/17 07:28:31;;;;;;;7.00;1.20;;;;;;;4.53;50.86;102356.31;5023574;28;20045;-72
2024/03/17 07:31:02;;;;;;;3.55;0.95;;;;;;;4.79;50.25;102369.47;5034867;28;20111;-69
2024/03/17 07:33:28;;;;;;;9.23;1.00;;;;;;;4.89;50.82;102365.25;5016991;28;20781;-69
2024/03/17 07:35:59;;;;;;;4.13;1.00;;;;;;;5.02;50.34;102369.69;5035954;28;20083;-71
2024/03/17 07:38:27;;;;;;;5.97;0.98;;;;;;;4.95;50.13;102362.72;5020645;28;20096;-69
2024/03/17 07:41:02;;;;;;;10.38;1.60;;;;;;;5.14;50.50;102364.56;5028628;28;20568;-69
2024/03/17 07:43:37;;;;;;;5.38;1.42;;;;;;;5.54;49.69;102362.22;5013263;28;20036;-70
2024/03/17 07:46:12;;;;;;;6.22;1.88;;;;;;;6.07;49.81;102363.28;5034615;28;20115;-69
2024/03/17 07:48:39;;;;;;;6.72;0.98;;;;;;;7.00;48.65;102357.31;5022194;28;20033;-69
2024/03/17 07:51:09;;;;;;;8.43;0.80;;;;;;;7.22;46.12;102358.16;5034646;28;20698;-71
2024/03/17 07:53:37;;;;;;;;;;;;;;;7.60;46.01;102364.13;5021043;28;20036;-69
2024/03/17 07:56:05;;;;;;;9.73;1.27;;;;;;;9.17;42.97;102361.34;5034796;28;19963;-69
2024/03/17 07:58:35;;;;;;;6.32;1.20;;;;;;;10.34;40.06;102357.25;5023060;28;20071;-70
2024/03/17 08:01:09;;;;;;;7.13;0.98;;;;;;;10.70;40.39;102370.63;5033054;28;20123;-68
2024/03/17 08:03:36;;;;;;;5.68;0.85;;;;;;;11.39;36.82;102361.53;5017582;28;20041;-69
2024/03/17 08:06:07;;;;;;;4.05;0.65;;;;;;;12.13;36.28;102354.75;5033912;28;20033;-70
2024/03/17 08:08:33;;;;;;;3.40;1.35;;;;;;;12.11;36.28;102354.81;5020616;28;20049;-69
2024/03/17 08:11:03;;;;;;;6.68;0.85;;;;;;;11.78;34.19;102370.38;5039706;28;20031;-69
2024/03/17 08:13:33;;;;;;;6.55;1.25;;;;;;;10.64;36.99;102371.59;5024547;28;20648;-69
2024/03/17 08:16:05;;;;;;;8.32;0.77;;;;;;;9.42;38.72;102371.50;5031486;28;20039;-69
2024/03/17 08:18:34;;;;;;;6.97;1.50;;;;;;;8.96;40.42;102363.28;5007644;28;20052;-69
2024/03/17 08:21:01;;;;;;;7.65;0.70;;;;;;;9.28;39.48;102356.00;5030073;28;20487;-69
2024/03/17 08:23:26;;;;;;;8.30;1.45;;;;;;;9.83;39.02;102357.09;5026175;28;20044;-69
2024/03/17 08:25:56;;;;;;;5.43;1.08;;;;;;;10.72;36.47;102355.75;5029786;28;20040;-70
2024/03/17 08:28:22;;;;;;;8.13;0.70;;;;;;;11.46;35.71;102348.31;5029098;28;20043;-69
2024/03/17 08:30:58;;;;;;;6.80;1.42;;;;;;;11.68;34.25;102348.72;5020215;28;20060;-69
2024/03/17 08:33:25;;;;;;;7.20;0.52;;;;;;;12.13;33.68;102345.13;5037805;28;20443;-69
2024/03/17 08:36:04;;;;;;;6.90;1.30;;;;;;;12.64;33.23;102342.16;5021346;28;21062;-69
2024/03/17 08:38:31;;;;;;;5.60;1.20;;;;;;;12.41;33.03;102341.88;5022894;28;20053;-69
2024/03/17 08:41:02;;;;;;;10.70;1.25;;;;;;;12.11;34.21;102338.22;5031789;28;20032;-68
2024/03/17 08:43:30;;;;;;;4.50;0.60;;;;;;;11.93;33.53;102336.88;5037237;28;20074;-70
2024/03/17 08:46:06;;;;;;;7.05;1.08;;;;;;;11.33;34.73;102339.00;5030772;28;20059;-68
2024/03/17 08:48:34;;;;;;;8.82;1.58;;;;;;;10.70;35.11;102336.63;5025215;28;20147;-69
2024/03/17 08:51:01;;;;;;;9.55;0.82;;;;;;;11.54;35.35;102337.69;5028176;28;20167;-69
2024/03/17 08:53:27;;;;;;;7.15;1.15;;;;;;;11.08;34.96;102337.72;5030508;28;20051;-69
2024/03/17 08:55:56;;;;;;;9.00;0.90;;;;;;;10.56;34.63;102340.34;5014444;28;20617;-69
2024/03/17 08:58:25;;;;;;;10.80;1.17;;;;;;;10.11;35.87;102342.78;5021243;28;20059;-69
2024/03/17 09:00:53;;;;;;;10.80;1.48;;;;;;;10.47;34.57;102340.50;5014187;28;20048;-70
2024/03/17 09:03:19;;;;;;;6.07;0.65;;;;;;;9.93;35.58;102343.91;5028209;28;20044;-71
2024/03/17 09:05:49;;;;;;;3.80;0.70;;;;;;;10.05;35.57;102348.09;5019717;28;20035;-70
2024/03/17 09:08:17;;;;;;;3.10;0.30;;;;;;;9.75;35.29;102351.97;5031545;28;20028;-71
2024/03/17 09:10:50;;;;;;;4.05;0.32;;;;;;;9.34;35.90;102350.69;5017649;28;20029;-69
2024/03/17 09:13:19;;;;;;;3.33;0.30;;;;;;;9.10;36.03;102347.50;5028476;28;20029;-69
2024/03/17 09:16:02;;;;;;;3.05;0.20;;;;;;;9.33;35.63;102352.44;5001927;28;20033;-69
2024/03/17 09:18:38;;;;;;;6.05;0.43;;;;;;;10.20;34.66;102353.09;5031961;28;20546;-69
2024/03/17 09:21:07;;;;;;;2.13;0.20;;;;;;;9.70;35.51;102351.13;5019074;28;20789;-69
2024/03/17 09:23:34;;;;;;;2.35;0.25;;;;;;;9.34;35.74;102354.19;5026776;28;20616;-71
2024/03/17 09:26:06;;;;;;;7.68;0.50;;;;;;;9.03;35.70;102355.38;5018840;28;20024;-71
2024/03/17 09:28:33;;;;;;;3.13;0.30;;;;;;;9.26;35.95;102356.03;5018511;28;20670;-72
2024/03/17 09:31:01;;;;;;;7.30;0.60;;;;;;;8.93;35.89;102355.47;5021238;28;20033;-71
2024/03/17 09:33:29;;;;;;;2.95;0.45;;;;;;;9.12;36.14;102355.28;5027236;28;20135;-71
2024/03/17 09:35:57;;;;;;;3.03;0.43;;;;;;;9.51;36.13;102351.38;5019127;28;20028;-71
2024/03/17 09:38:22;;;;;;;1.25;0.30;;;;;;;8.89;36.56;102345.94;5021767;28;20067;-72
2024/03/17 09:40:57;;;;;;;2.03;0.50;;;;;;;8.31;37.05;102356.81;5022631;28;20029;-72
2024/03/17 09:43:24;;;;;;;5.47;0.73;;;;;;;8.41;36.79;102355.88;5024397;28;20068;-72
2024/03/17 09:45:54;;;;;;;7.05;2.20;;;;;;;8.44;37.09;102355.84;5021140;28;20112;-71
2024/03/17 09:48:30;;;;;;;6.88;0.80;;;;;;;8.03;37.97;102349.19;5031857;28;20179;-71
2024/03/17 09:51:00;;;;;;;7.38;0.98;;;;;;;7.98;37.76;102358.78;5022570;28;20854;-71
2024/03/17 09:53:30;;;;;;;4.18;0.32;;;;;;;8.13;37.90;102358.66;5046931;28;20127;-71
2024/03/17 09:55:59;;;;;;;3.13;0.35;;;;;;;8.06;37.61;102356.97;5029280;27;20311;-71
2024/03/17 09:58:24;;;;;;;5.82;0.30;;;;;;;7.79;38.17;102351.91;5032610;28;20636;-71
2024/03/17 10:00:52;;;;;;;5.50;0.28;;;;;;;7.97;37.99;102351.81;5020896;28;20095;-71
2024/03/17 10:03:41;;;;;;;3.25;0.40;;;;;;;7.81;37.72;102355.38;5019052;28;20040;-73
2024/03/17 10:06:14;;;;;;;9.65;0.88;;;;;;;7.58;38.84;102347.66;5031505;28;20029;-71
2024/03/17 10:08:47;;;;;;;5.82;0.95;;;;;;;8.04;38.42;102348.28;5025689;28;20049;-71
2024/03/17 10:11:17;;;;;;;3.10;0.30;;;;;;;8.11;38.11;102355.22;5039924;28;20059;-71
2024/03/17 10:13:58;;;;;;;10.35;0.98;;;;;;;7.70;38.49;102343.28;5021863;28;20041;-69
2024/03/17 10:16:29;;;;;;;7.20;0.98;;;;;;;7.79;38.87;102341.50;5039681;28;20513;-69
2024/03/17 10:19:13;;;;;;;4.27;0.50;;;;;;;7.50;39.05;102342.47;5039712;28;20132;-69
2024/03/17 10:21:46;;;;;;;6.88;0.55;;;;;;;7.51;39.20;102341.56;5026895;28;20095;-72
2024/03/17 10:24:14;;;;;;;4.47;0.50;;;;;;;7.40;39.91;102332.94;5026046;28;20037;-69
2024/03/17 10:26:50;;;;;;;2.88;0.75;;;;;;;7.63;39.49;102338.97;5029059;28;20994;-72
2024/03/17 10:29:29;;;;;;;5.57;0.50;;;;;;;7.91;39.16;102336.22;5029389;28;20101;-72
2024/03/17 10:32:24;;;;;;;10.30;0.50;;;;;;;8.36;39.03;102336.81;5021386;28;20478;-72
2024/03/17 10:34:49;;;;;;;6.82;0.30;;;;;;;8.41;38.09;102337.66;5016018;28;20040;-71
2024/03/17 10:37:19;;;;;;;3.05;0.30;;;;;;;8.06;38.92;102335.28;5030551;28;20052;-72
2024/03/17 10:39:50;;;;;;;8.43;0.45;;;;;;;8.02;39.16;102328.34;5022338;28;20516;-69
2024/03/17 10:42:25;;;;;;;3.17;0.73;;;;;;;8.24;39.36;102329.09;5018496;28;20410;-69
2024/03/17 10:44:57;;;;;;;3.72;0.50;;;;;;;8.09;39.27;102337.84;5019207;28;20036;-70
2024/03/17 10:47:27;;;;;;;2.58;1.13;;;;;;;7.94;39.92;102336.22;5032057;28;20120;-69
2024/03/17 10:49:56;;;;;;;1.85;0.30;;;;;;;8.42;38.98;102328.09;5027350;28;20143;-69
2024/03/17 10:52:25;;;;;;;4.95;0.40;;;;;;;8.14;39.45;102346.53;5032456;28;20562;-69
2024/03/17 10:54:55;;;;;;;5.60;0.25;;;;;;;7.73;40.01;102342.38;5019289;28;20548;-69
2024/03/17 10:57:35;;;;;;;9.75;1.60;;;;;;;7.92;39.70;102345.78;5020334;28;20044;-70
2024/03/17 11:00:08;;;;;;;2.15;0.65;;;;;;;8.34;39.49;102333.38;5028213;28;20807;-69
2024/03/17 11:02:38;;;;;;;5.20;0.80;;;;;;;8.24;38.98;102334.28;5030974;28;20451;-70
2024/03/17 11:05:13;;;;;;;4.05;0.43;;;;;;;8.36;39.20;102329.00;5022814;28;20462;-70
2024/03/17 11:07:45;;;;;;;4.43;0.57;;;;;;;8.23;39.47;102327.38;5030993;28;20033;-69
2024/03/17 11:10:16;;;;;;;5.22;0.85;;;;;;;8.59;39.13;102325.34;5025838;28;20063;-70
2024/03/17 11:12:44;;;;;;;4.60;0.67;;;;;;;8.56;39.29;102327.09;5031909;28;20041;-70
2024/03/17 11:15:41;;;;;;;3.08;0.55;;;;;;;8.64;38.47;102328.78;5025429;28;20646;-70
2024/03/17 11:18:10;;;;;;;4.93;0.47;;;;;;;8.29;39.29;102322.09;5023746;28;20040;-70
2024/03/17 11:20:43;;;;;;;5.40;0.50;;;;;;;8.29;39.81;102319.50;5043776;28;20037;-70
2024/03/17 11:23:09;;;;;;;8.57;0.50;;;;;;;8.19;39.41;102317.84;5000987;28;20102;-69
2024/03/17 11:25:40;;;;;;;4.32;0.50;;;;;;;8.31;39.14;102313.38;5021343;28;20029;-70
2024/03/17 11:28:10;;;;;;;5.90;1.00;;;;;;;8.36;38.87;102308.16;5023005;28;20727;-70
2024/03/17 11:30:46;;;;;;;4.82;0.70;;;;;;;8.39;39.22;102305.53;5030671;28;20036;-70
2024/03/17 11:33:35;;;;;;;2.70;0.73;;;;;;;8.80;38.00;102309.53;5029089;28;20041;-72
2024/03/17 11:36:21;;;;;;;3.45;0.43;;;;;;;8.95;38.47;102314.59;5023701;28;20119;-70
2024/03/17 11:39:03;;;;;;;5.68;0.60;;;;;;;9.08;37.53;102312.72;5027458;28;20048;-72
2024/03/17 11:41:34;;;;;;;7.13;0.68;;;;;;;9.72;36.64;102305.88;5035408;28;20123;-73
2024/03/17 11:44:21;;;;;;;3.75;0.45;;;;;;;9.44;37.44;102305.38;5021995;28;20041;-69